MV Causeway Supplier — ZR2426 — position and weather

sailwx.info

Track history (hours):
 
Tides and Currents Weather Stations Pressure Air Temp Water Temp Dewpoint Dewpoint Depression Visibility Wind Speed Wind Dir Waves Ship Positions

MV Causeway Supplier

Last reported at 2014-Aug-30 07:33 UTC. Time now 2014-Aug-30 22:39 UTC.
Position S 29°54' E 031°00'.

Length 22 m; draft 2.7 m.

Type: . MMSI: 601041200.

Date/timePositionNaut miles runAvg speedWind from/ knotsBaromVisibWave heightAir tempDewpointWater temp
2014-Aug-30 07:33S 29°54' E 031°00'0 0.0
2014-Aug-30 06:32S 29°54' E 031°00'0 0.0
2014-Aug-30 05:33S 29°54' E 031°00'0 0.0
2014-Aug-30 04:33S 29°54' E 031°00'2 0.2
2014-Aug-29 15:32S 29°52' E 031°01'1 0.6
2014-Aug-29 14:33S 29°52' E 031°02'2 2.1
2014-Aug-29 13:29S 29°54' E 031°00'1 0.7
2014-Aug-29 12:31S 29°53' E 031°00'2 2.4
2014-Aug-29 11:33S 29°52' E 031°03'7 6.6
2014-Aug-29 10:33S 29°52' E 031°10'1 1.1
2014-Aug-29 09:33S 29°51' E 031°09'6 6.3
2014-Aug-29 08:33S 29°52' E 031°02'2 2.1
2014-Aug-29 07:31S 29°54' E 031°00'0 0.0
2014-Aug-29 06:33S 29°54' E 031°00'3 0.2
2014-Aug-28 16:04S 29°52' E 031°03'4 7.6
2014-Aug-28 15:33S 29°55' E 031°07'1 1.3
2014-Aug-28 14:34S 29°55' E 031°08'5 4.9
2014-Aug-28 13:33S 29°52' E 031°04'3 3.0
2014-Aug-28 12:24S 29°54' E 031°00'0 0.0
2014-Aug-28 11:33S 29°54' E 031°00'0 0.0
2014-Aug-28 10:19S 29°54' E 031°00'0 0.0
2014-Aug-28 09:34S 29°54' E 031°00'0 0.0
2014-Aug-28 08:33S 29°54' E 031°00'0 0.0
2014-Aug-28 07:34S 29°54' E 031°00'0 0.0
2014-Aug-28 06:33S 29°54' E 031°00'0 0.0
2014-Aug-28 05:33S 29°54' E 031°00'0 0.0
2014-Aug-27 11:32S 29°54' E 031°00'0 0.0
2014-Aug-27 06:32S 29°54' E 031°00'0 0.0
2014-Aug-27 05:32S 29°54' E 031°00'0 0.0
2014-Aug-27 04:34S 29°54' E 031°00'0 0.0
2014-Aug-27 03:34S 29°54' E 031°00'0 0.0
2014-Aug-27 02:33S 29°54' E 031°00'0 0.0
2014-Aug-27 01:34S 29°54' E 031°00'0 0.0
2014-Aug-27 00:34S 29°54' E 031°00'0 0.0
2014-Aug-26 23:32S 29°54' E 031°00'0 0.0
2014-Aug-26 22:33S 29°54' E 031°00'0 0.0
2014-Aug-26 21:34S 29°54' E 031°00'0 0.0
2014-Aug-26 20:31S 29°54' E 031°00'0 0.0
2014-Aug-26 19:33S 29°54' E 031°00'0 0.0
2014-Aug-26 18:33S 29°54' E 031°00'0 0.0
2014-Aug-26 17:30S 29°54' E 031°00'0 0.0
2014-Aug-26 16:25S 29°54' E 031°00'0 0.0
2014-Aug-26 15:29S 29°54' E 031°00'0 0.0
2014-Aug-26 14:33S 29°54' E 031°00'0 0.0
2014-Aug-26 13:33S 29°54' E 031°00'0 0.0
2014-Aug-26 12:33S 29°54' E 031°00'0 0.0
2014-Aug-26 11:33S 29°54' E 031°00'0 0.0
2014-Aug-26 10:33S 29°54' E 031°00'0 0.0
2014-Aug-26 09:34S 29°54' E 031°00'0 0.0
2014-Aug-26 08:34S 29°54' E 031°00'0 0.0
2014-Aug-25 10:33S 29°54' E 031°00'5 4.7
2014-Aug-25 09:33S 29°51' E 031°05'7 7.5
2014-Aug-25 08:33S 29°47' E 031°12'6 6.4
2014-Aug-25 07:33S 29°44' E 031°18'3 3.1
2014-Aug-25 06:33S 29°47' E 031°17'7 7.5
2014-Aug-25 05:33S 29°51' E 031°10'8 8.3
2014-Aug-25 04:33S 29°53' E 031°00'1 0.7
2014-Aug-25 03:33S 29°54' E 031°00'  
2014-Aug-22 15:29S 29°53' E 031°00'7 7.2
2014-Aug-22 14:33S 29°48' E 031°06'3 3.1
2014-Aug-22 13:33S 29°46' E 031°08'1 1.0
2014-Aug-22 12:33S 29°47' E 031°07'3 2.6
2014-Aug-22 11:33S 29°49' E 031°05'7 5.7
2014-Aug-22 10:21S 29°54' E 031°00'0 0.0
2014-Aug-22 09:32S 29°54' E 031°00'0 0.0
2014-Aug-22 08:33S 29°54' E 031°00'0 0.0
2014-Aug-22 07:33S 29°54' E 031°00'2 0.1
2014-Aug-21 08:33S 29°53' E 031°02'5 3.4
2014-Aug-21 07:08S 29°57' E 031°03'3 1.9
2014-Aug-21 05:33S 29°55' E 031°06'3 3.0
2014-Aug-21 04:28S 29°53' E 031°08'6 6.7
2014-Aug-21 03:32S 29°52' E 031°01'2 2.1
2014-Aug-21 02:33S 29°54' E 031°00'  
Track history (hours):
 
Tides and Currents Weather Stations Pressure Air Temp Water Temp Dewpoint Dewpoint Depression Visibility Wind Speed Wind Dir Waves Ship Positions

MV Causeway Supplier

Last reported at 2014-Aug-30 07:33 UTC. Time now 2014-Aug-30 22:39 UTC.
Position S 29°54' E 031°00'.

Length 22 m; draft 2.7 m.

Type: . MMSI: 601041200.

Date/timePositionNaut miles runAvg speedWind from/ knotsBaromVisibWave heightAir tempDewpointWater temp
2014-Aug-30 07:33S 29°54' E 031°00'0 0.0
2014-Aug-30 06:32S 29°54' E 031°00'0 0.0
2014-Aug-30 05:33S 29°54' E 031°00'0 0.0
2014-Aug-30 04:33S 29°54' E 031°00'2 0.2
2014-Aug-29 15:32S 29°52' E 031°01'1 0.6
2014-Aug-29 14:33S 29°52' E 031°02'2 2.1
2014-Aug-29 13:29S 29°54' E 031°00'1 0.7
2014-Aug-29 12:31S 29°53' E 031°00'2 2.4
2014-Aug-29 11:33S 29°52' E 031°03'7 6.6
2014-Aug-29 10:33S 29°52' E 031°10'1 1.1
2014-Aug-29 09:33S 29°51' E 031°09'6 6.3
2014-Aug-29 08:33S 29°52' E 031°02'2 2.1
2014-Aug-29 07:31S 29°54' E 031°00'0 0.0
2014-Aug-29 06:33S 29°54' E 031°00'3 0.2
2014-Aug-28 16:04S 29°52' E 031°03'4 7.6
2014-Aug-28 15:33S 29°55' E 031°07'1 1.3
2014-Aug-28 14:34S 29°55' E 031°08'5 4.9
2014-Aug-28 13:33S 29°52' E 031°04'3 3.0
2014-Aug-28 12:24S 29°54' E 031°00'0 0.0
2014-Aug-28 11:33S 29°54' E 031°00'0 0.0
2014-Aug-28 10:19S 29°54' E 031°00'0 0.0
2014-Aug-28 09:34S 29°54' E 031°00'0 0.0
2014-Aug-28 08:33S 29°54' E 031°00'0 0.0
2014-Aug-28 07:34S 29°54' E 031°00'0 0.0
2014-Aug-28 06:33S 29°54' E 031°00'0 0.0
2014-Aug-28 05:33S 29°54' E 031°00'0 0.0
2014-Aug-27 11:32S 29°54' E 031°00'0 0.0
2014-Aug-27 06:32S 29°54' E 031°00'0 0.0
2014-Aug-27 05:32S 29°54' E 031°00'0 0.0
2014-Aug-27 04:34S 29°54' E 031°00'0 0.0
2014-Aug-27 03:34S 29°54' E 031°00'0 0.0
2014-Aug-27 02:33S 29°54' E 031°00'0 0.0
2014-Aug-27 01:34S 29°54' E 031°00'0 0.0
2014-Aug-27 00:34S 29°54' E 031°00'0 0.0
2014-Aug-26 23:32S 29°54' E 031°00'0 0.0
2014-Aug-26 22:33S 29°54' E 031°00'0 0.0
2014-Aug-26 21:34S 29°54' E 031°00'0 0.0
2014-Aug-26 20:31S 29°54' E 031°00'0 0.0
2014-Aug-26 19:33S 29°54' E 031°00'0 0.0
2014-Aug-26 18:33S 29°54' E 031°00'0 0.0
2014-Aug-26 17:30S 29°54' E 031°00'0 0.0
2014-Aug-26 16:25S 29°54' E 031°00'0 0.0
2014-Aug-26 15:29S 29°54' E 031°00'0 0.0
2014-Aug-26 14:33S 29°54' E 031°00'0 0.0
2014-Aug-26 13:33S 29°54' E 031°00'0 0.0
2014-Aug-26 12:33S 29°54' E 031°00'0 0.0
2014-Aug-26 11:33S 29°54' E 031°00'0 0.0
2014-Aug-26 10:33S 29°54' E 031°00'0 0.0
2014-Aug-26 09:34S 29°54' E 031°00'0 0.0
2014-Aug-26 08:34S 29°54' E 031°00'0 0.0
2014-Aug-25 10:33S 29°54' E 031°00'5 4.7
2014-Aug-25 09:33S 29°51' E 031°05'7 7.5
2014-Aug-25 08:33S 29°47' E 031°12'6 6.4
2014-Aug-25 07:33S 29°44' E 031°18'3 3.1
2014-Aug-25 06:33S 29°47' E 031°17'7 7.5
2014-Aug-25 05:33S 29°51' E 031°10'8 8.3
2014-Aug-25 04:33S 29°53' E 031°00'1 0.7
2014-Aug-25 03:33S 29°54' E 031°00'  
2014-Aug-22 15:29S 29°53' E 031°00'7 7.2
2014-Aug-22 14:33S 29°48' E 031°06'3 3.1
2014-Aug-22 13:33S 29°46' E 031°08'1 1.0
2014-Aug-22 12:33S 29°47' E 031°07'3 2.6
2014-Aug-22 11:33S 29°49' E 031°05'7 5.7
2014-Aug-22 10:21S 29°54' E 031°00'0 0.0
2014-Aug-22 09:32S 29°54' E 031°00'0 0.0
2014-Aug-22 08:33S 29°54' E 031°00'0 0.0
2014-Aug-22 07:33S 29°54' E 031°00'2 0.1
2014-Aug-21 08:33S 29°53' E 031°02'5 3.4
2014-Aug-21 07:08S 29°57' E 031°03'3 1.9
2014-Aug-21 05:33S 29°55' E 031°06'3 3.0
2014-Aug-21 04:28S 29°53' E 031°08'6 6.7
2014-Aug-21 03:32S 29°52' E 031°01'2 2.1
2014-Aug-21 02:33S 29°54' E 031°00'  

Dump ship's entire track history